Time;durP1;ratioP1;P1;durP2;ratioP2;P2;SDS_P1;SDS_P2;PMS_P1;PMS_P2;Temp;Humidity;BMP_temperature;BMP_pressure;BME280_temperature;BME280_humidity;BME280_pressure;Samples;Min_cycle;Max_cycle;Signal;HPM_P1;HPM_P2
2023/08/20 00:00:18;;;;;;;18.05;16.45;;;30.50;99.90;;;;;;5055727;28;20021;-67
2023/08/20 00:02:46;;;;;;;18.15;16.55;;;30.50;99.90;;;;;;5055778;28;20475;-67
2023/08/20 00:05:13;;;;;;;18.52;16.88;;;30.50;99.90;;;;;;5055492;28;20033;-66
2023/08/20 00:07:39;;;;;;;19.15;17.45;;;30.40;99.90;;;;;;5055508;28;20443;-67
2023/08/20 00:10:06;;;;;;;17.65;15.63;;;30.40;99.90;;;;;;5052592;28;20058;-67
2023/08/20 00:12:32;;;;;;;19.20;17.38;;;30.50;99.90;;;;;;5046386;28;20025;-67
2023/08/20 00:15:04;;;;;;;19.80;16.15;;;30.40;99.90;;;;;;5046028;28;20036;-66
2023/08/20 00:17:40;;;;;;;17.83;16.03;;;30.40;99.90;;;;;;5049630;28;20044;-66
2023/08/20 00:20:16;;;;;;;17.88;16.25;;;30.40;99.90;;;;;;5045675;28;20117;-66
2023/08/20 00:22:44;;;;;;;17.77;16.17;;;30.50;99.90;;;;;;5055674;28;20037;-66
2023/08/20 00:25:14;;;;;;;19.20;17.13;;;30.40;99.90;;;;;;5055174;28;20510;-66
2023/08/20 00:27:40;;;;;;;19.70;16.95;;;30.30;99.90;;;;;;5055208;28;20072;-66
2023/08/20 00:30:07;;;;;;;20.35;17.08;;;30.30;99.90;;;;;;5055174;28;20040;-66
2023/08/20 00:32:32;;;;;;;18.38;16.52;;;30.20;99.90;;;;;;5055207;28;20013;-66
2023/08/20 00:34:58;;;;;;;17.30;15.70;;;30.30;99.90;;;;;;5055180;28;20055;-66
2023/08/20 00:37:25;;;;;;;19.08;15.57;;;30.20;99.90;;;;;;5054914;28;20071;-66
2023/08/20 00:39:50;;;;;;;16.92;15.48;;;30.20;99.90;;;;;;5055403;28;20505;-66
2023/08/20 00:42:16;;;;;;;16.80;15.10;;;30.30;99.90;;;;;;5055208;28;20049;-66
2023/08/20 00:44:44;;;;;;;16.65;15.18;;;30.40;99.90;;;;;;5055247;28;20024;-67
2023/08/20 00:47:10;;;;;;;16.75;14.85;;;30.20;99.90;;;;;;5051833;28;20116;-66
2023/08/20 00:49:36;;;;;;;16.40;15.05;;;30.10;99.90;;;;;;5035467;28;20410;-66
2023/08/20 00:52:03;;;;;;;16.95;14.82;;;30.20;99.90;;;;;;5054923;28;20074;-66
2023/08/20 00:54:32;;;;;;;16.17;14.50;;;30.20;99.90;;;;;;5054741;28;20501;-66
2023/08/20 00:56:59;;;;;;;16.83;15.32;;;30.20;99.90;;;;;;5054647;28;20095;-66
2023/08/20 00:59:25;;;;;;;16.30;14.70;;;30.10;99.90;;;;;;5055208;28;20430;-66
2023/08/20 01:01:51;;;;;;;16.92;15.50;;;30.10;99.90;;;;;;5054463;28;20075;-66
2023/08/20 01:04:17;;;;;;;16.52;14.82;;;30.00;99.90;;;;;;5054116;28;20487;-66
2023/08/20 01:07:03;;;;;;;17.85;14.55;;;30.00;99.90;;;;;;5053641;28;20074;-66
2023/08/20 01:09:32;;;;;;;15.60;14.20;;;30.00;99.90;;;;;;5053788;28;20044;-66
2023/08/20 01:11:59;;;;;;;16.55;14.77;;;30.00;99.90;;;;;;5050879;28;20041;-66
2023/08/20 01:14:25;;;;;;;16.55;14.82;;;29.90;99.90;;;;;;5043135;28;20477;-66
2023/08/20 01:16:51;;;;;;;16.33;14.05;;;30.00;99.90;;;;;;5053649;28;20123;-66
2023/08/20 01:19:21;;;;;;;15.95;14.32;;;30.00;99.90;;;;;;5052394;28;20029;-66
2023/08/20 01:21:56;;;;;;;15.00;13.57;;;30.00;99.90;;;;;;5053514;28;20493;-66
2023/08/20 01:24:51;;;;;;;17.02;15.45;;;29.90;99.90;;;;;;5053308;28;20036;-68
2023/08/20 01:27:30;;;;;;;16.00;14.40;;;29.90;99.90;;;;;;5041921;28;20093;-67
2023/08/20 01:29:56;;;;;;;16.88;14.93;;;29.90;99.90;;;;;;5051840;28;20468;-67
2023/08/20 01:32:23;;;;;;;15.32;14.13;;;29.90;99.90;;;;;;5053374;28;20025;-67
2023/08/20 01:34:49;;;;;;;15.77;14.43;;;29.80;99.90;;;;;;5053117;28;20029;-66
2023/08/20 01:37:16;;;;;;;16.10;14.50;;;29.90;99.90;;;;;;5052745;28;20025;-67
2023/08/20 01:39:41;;;;;;;16.30;13.60;;;29.90;99.90;;;;;;5051855;28;20032;-67
2023/08/20 01:42:07;;;;;;;16.35;14.85;;;29.80;99.90;;;;;;5053194;28;20077;-67
2023/08/20 01:44:33;;;;;;;17.10;14.93;;;29.80;99.90;;;;;;5053228;28;20025;-66
2023/08/20 01:46:59;;;;;;;15.65;14.23;;;29.70;99.90;;;;;;5053292;28;20021;-66
2023/08/20 01:49:24;;;;;;;15.45;14.15;;;29.60;99.90;;;;;;5053146;28;20486;-66
2023/08/20 01:51:50;;;;;;;14.93;13.65;;;29.70;99.90;;;;;;5053254;28;20471;-67
2023/08/20 01:54:16;;;;;;;15.35;14.07;;;29.60;99.90;;;;;;5052440;28;20116;-67
2023/08/20 01:56:42;;;;;;;14.50;13.15;;;29.60;99.90;;;;;;5052936;28;20021;-66
2023/08/20 01:59:08;;;;;;;16.02;14.32;;;29.60;99.90;;;;;;5052743;28;20031;-66
2023/08/20 02:01:34;;;;;;;13.50;12.27;;;29.60;99.90;;;;;;5052906;28;20075;-66
2023/08/20 02:04:00;;;;;;;14.77;13.35;;;29.60;99.90;;;;;;5053031;28;20056;-66
2023/08/20 02:06:26;;;;;;;13.98;12.77;;;29.60;99.90;;;;;;5051351;28;20087;-66
2023/08/20 02:08:51;;;;;;;15.45;13.93;;;29.70;99.90;;;;;;5052676;28;20040;-67
2023/08/20 02:11:17;;;;;;;15.27;13.82;;;29.50;99.90;;;;;;5052755;28;20021;-66
2023/08/20 02:13:43;;;;;;;14.38;12.75;;;29.60;99.90;;;;;;5052519;28;20033;-66
2023/08/20 02:16:09;;;;;;;14.00;12.82;;;29.60;99.90;;;;;;5049590;28;20384;-67
2023/08/20 02:18:34;;;;;;;14.15;12.65;;;29.60;99.90;;;;;;5045619;28;20029;-67
2023/08/20 02:21:00;;;;;;;13.90;12.63;;;29.50;99.90;;;;;;5042052;28;20035;-66
2023/08/20 02:23:26;;;;;;;14.38;13.02;;;29.60;99.90;;;;;;5053246;28;20033;-66
2023/08/20 02:25:51;;;;;;;13.52;12.40;;;29.50;99.90;;;;;;5053181;28;20059;-67
2023/08/20 02:28:17;;;;;;;12.98;11.75;;;29.50;99.90;;;;;;5053367;28;20033;-66
2023/08/20 02:30:46;;;;;;;13.90;12.45;;;29.50;99.90;;;;;;5052975;28;20044;-66
2023/08/20 02:33:11;;;;;;;13.45;12.07;;;29.50;99.90;;;;;;5051886;28;20388;-66
2023/08/20 02:35:38;;;;;;;12.93;11.63;;;29.50;99.90;;;;;;5051589;28;20151;-66
2023/08/20 02:38:04;;;;;;;13.95;12.77;;;29.40;99.90;;;;;;5033102;28;20379;-66
2023/08/20 02:40:30;;;;;;;13.63;12.23;;;29.40;99.90;;;;;;5046845;28;20029;-67
2023/08/20 02:42:56;;;;;;;14.32;12.85;;;29.50;99.90;;;;;;5052821;28;20028;-67
2023/08/20 02:45:22;;;;;;;13.02;11.73;;;29.50;99.90;;;;;;5052970;28;20029;-67
2023/08/20 02:47:48;;;;;;;12.77;11.77;;;29.50;99.90;;;;;;5052849;28;20029;-67
2023/08/20 02:50:14;;;;;;;12.25;11.23;;;29.50;99.90;;;;;;5052845;28;20549;-66
2023/08/20 02:52:45;;;;;;;12.52;11.23;;;29.50;99.90;;;;;;5051196;28;20025;-66
2023/08/20 02:55:10;;;;;;;11.90;10.75;;;29.40;99.90;;;;;;5041005;28;20108;-66
2023/08/20 02:57:36;;;;;;;12.35;11.23;;;29.40;99.90;;;;;;5051523;28;20453;-66
2023/08/20 03:00:02;;;;;;;15.23;11.10;;;29.40;99.90;;;;;;5045744;28;20043;-67
2023/08/20 03:02:28;;;;;;;14.70;13.05;;;29.40;99.90;;;;;;5052835;28;20573;-67
2023/08/20 03:04:55;;;;;;;15.20;13.70;;;29.40;99.90;;;;;;5052489;28;20029;-66
2023/08/20 03:07:22;;;;;;;14.52;12.90;;;29.30;99.90;;;;;;5056494;28;20025;-67
2023/08/20 03:09:48;;;;;;;13.98;12.63;;;29.40;99.90;;;;;;5056850;28;20048;-67
2023/08/20 03:12:14;;;;;;;14.48;13.02;;;29.40;99.90;;;;;;5045290;28;20026;-67
2023/08/20 03:14:39;;;;;;;13.25;12.15;;;29.40;99.90;;;;;;5054625;28;20021;-67
2023/08/20 03:17:05;;;;;;;13.63;12.40;;;29.40;99.90;;;;;;5056406;28;20021;-66
2023/08/20 03:19:34;;;;;;;12.63;11.55;;;29.30;99.90;;;;;;5056876;28;20083;-66
2023/08/20 03:21:59;;;;;;;13.02;11.82;;;29.30;99.90;;;;;;5056999;28;20017;-66
2023/08/20 03:24:25;;;;;;;13.95;11.63;;;29.30;99.90;;;;;;5056741;28;20120;-67
2023/08/20 03:26:51;;;;;;;13.45;12.25;;;29.30;99.90;;;;;;5056752;28;20029;-67
2023/08/20 03:29:16;;;;;;;14.90;13.40;;;29.30;99.90;;;;;;5056789;28;20052;-67
2023/08/20 03:31:42;;;;;;;13.10;11.90;;;29.30;99.90;;;;;;5056398;28;20021;-66
2023/08/20 03:34:09;;;;;;;13.02;11.80;;;29.30;99.90;;;;;;5055116;28;20077;-67
2023/08/20 03:36:35;;;;;;;12.85;11.70;;;29.30;99.90;;;;;;5056617;28;20033;-67
2023/08/20 03:39:01;;;;;;;13.70;12.38;;;29.30;99.90;;;;;;5056379;28;20394;-67
2023/08/20 03:41:26;;;;;;;12.38;11.23;;;29.30;99.90;;;;;;5056222;28;20047;-67
2023/08/20 03:43:52;;;;;;;14.80;13.43;;;29.20;99.90;;;;;;5056261;28;20071;-67
2023/08/20 03:46:17;;;;;;;13.70;11.90;;;29.20;99.90;;;;;;5056791;28;20056;-67
2023/08/20 03:48:43;;;;;;;13.05;11.68;;;29.20;99.90;;;;;;5043007;28;20477;-67
2023/08/20 03:51:09;;;;;;;12.63;11.63;;;29.10;99.90;;;;;;5055252;28;20074;-67
2023/08/20 03:53:34;;;;;;;13.23;11.93;;;29.10;99.90;;;;;;5042017;28;20049;-67
2023/08/20 03:56:00;;;;;;;13.60;12.23;;;29.10;99.90;;;;;;5046620;28;20239;-67
2023/08/20 03:58:26;;;;;;;14.02;11.73;;;29.20;99.90;;;;;;5038299;28;20038;-67
2023/08/20 04:00:51;;;;;;;12.75;11.05;;;29.10;99.90;;;;;;5054824;28;20025;-66
2023/08/20 04:03:19;;;;;;;12.85;11.55;;;29.10;99.90;;;;;;5055945;28;20059;-67
2023/08/20 04:05:45;;;;;;;15.80;12.10;;;29.20;99.90;;;;;;5055204;28;20505;-67
2023/08/20 04:08:10;;;;;;;12.10;10.80;;;29.10;99.90;;;;;;5054703;28;20041;-67
2023/08/20 04:10:43;;;;;;;11.85;10.75;;;29.10;99.90;;;;;;5054495;28;20372;-67
2023/08/20 04:13:09;;;;;;;11.80;10.65;;;29.10;99.90;;;;;;5047107;28;20033;-67
2023/08/20 04:15:34;;;;;;;13.05;11.75;;;29.10;99.90;;;;;;5049482;28;20443;-67
2023/08/20 04:18:00;;;;;;;11.73;10.50;;;29.10;99.90;;;;;;5040324;28;20033;-67
2023/08/20 04:20:25;;;;;;;12.43;11.23;;;29.10;99.90;;;;;;5054498;28;20087;-67
2023/08/20 04:22:51;;;;;;;12.68;11.00;;;29.10;99.90;;;;;;5040305;28;20025;-67
2023/08/20 04:25:17;;;;;;;11.95;10.95;;;29.10;99.90;;;;;;5054090;28;20406;-67
2023/08/20 04:27:42;;;;;;;12.40;11.18;;;29.10;99.90;;;;;;5054399;28;20064;-67
2023/08/20 04:30:09;;;;;;;11.63;10.52;;;29.10;99.90;;;;;;5054471;28;20437;-67
2023/08/20 04:32:35;;;;;;;11.60;10.70;;;29.10;99.90;;;;;;5052998;28;20021;-67
2023/08/20 04:35:01;;;;;;;11.80;10.77;;;29.10;99.90;;;;;;5054122;28;20078;-68
2023/08/20 04:37:26;;;;;;;12.77;11.65;;;29.10;99.90;;;;;;5054388;28;20111;-67
2023/08/20 04:39:52;;;;;;;13.05;11.85;;;29.10;99.90;;;;;;5054343;28;20112;-67
2023/08/20 04:42:18;;;;;;;14.35;11.23;;;29.10;99.90;;;;;;5054167;28;20492;-67
2023/08/20 04:44:43;;;;;;;14.48;11.27;;;29.10;99.90;;;;;;5054046;28;20040;-67
2023/08/20 04:47:12;;;;;;;18.02;12.63;;;29.10;99.90;;;;;;5054305;28;20056;-67
2023/08/20 04:49:39;;;;;;;12.70;11.57;;;29.10;99.90;;;;;;5039776;28;20043;-67
2023/08/20 04:52:04;;;;;;;11.73;10.68;;;29.10;99.90;;;;;;5054214;28;20029;-67
2023/08/20 04:54:30;;;;;;;13.07;11.70;;;29.10;99.90;;;;;;5054093;28;20021;-67
2023/08/20 04:56:56;;;;;;;11.68;10.77;;;29.10;99.90;;;;;;5039670;28;20444;-67
2023/08/20 04:59:22;;;;;;;13.30;11.60;;;29.10;99.90;;;;;;5054107;28;20029;-67
2023/08/20 05:01:48;;;;;;;14.95;12.10;;;29.10;99.90;;;;;;5053661;28;20021;-67
2023/08/20 05:04:13;;;;;;;13.13;11.75;;;29.10;99.90;;;;;;5053780;28;20377;-67
2023/08/20 05:06:39;;;;;;;15.52;11.82;;;29.10;99.90;;;;;;5015394;28;1115031;-67
2023/08/20 05:09:05;;;;;;;11.50;10.40;;;29.10;99.90;;;;;;5054492;28;20119;-67
2023/08/20 05:11:32;;;;;;;12.70;11.52;;;29.10;99.90;;;;;;5054654;28;20110;-67
2023/08/20 05:13:58;;;;;;;12.18;11.02;;;29.10;99.90;;;;;;5054751;28;20406;-67
2023/08/20 05:16:24;;;;;;;12.85;10.95;;;29.10;99.90;;;;;;5054539;28;20036;-67
2023/08/20 05:18:49;;;;;;;12.07;10.80;;;29.20;99.90;;;;;;5042184;28;20479;-67
2023/08/20 05:21:15;;;;;;;14.20;11.00;;;29.10;99.90;;;;;;5052714;28;20411;-67
2023/08/20 05:23:41;;;;;;;12.43;11.48;;;29.10;99.90;;;;;;5054773;28;20029;-67
2023/08/20 05:26:07;;;;;;;15.75;10.55;;;29.20;99.90;;;;;;5040144;28;20035;-67
2023/08/20 05:28:33;;;;;;;12.73;11.10;;;29.20;99.90;;;;;;5053466;28;20367;-68
2023/08/20 05:30:59;;;;;;;13.30;12.00;;;29.20;99.90;;;;;;5054299;28;20028;-67
2023/08/20 05:33:25;;;;;;;12.63;11.32;;;29.20;99.90;;;;;;5054123;28;20025;-67
2023/08/20 05:35:51;;;;;;;12.15;10.85;;;29.20;99.90;;;;;;5054389;28;20390;-68
2023/08/20 05:38:17;;;;;;;11.90;10.82;;;29.20;99.90;;;;;;5040031;28;20025;-68
2023/08/20 05:40:43;;;;;;;12.35;11.15;;;29.20;99.90;;;;;;5054316;28;20025;-67
2023/08/20 05:43:09;;;;;;;12.18;10.98;;;29.20;99.90;;;;;;5053982;28;20491;-67
2023/08/20 05:45:35;;;;;;;12.15;10.77;;;29.30;99.90;;;;;;5053849;28;20036;-67
2023/08/20 05:48:01;;;;;;;11.55;10.38;;;29.20;99.90;;;;;;5054005;28;20041;-67
2023/08/20 05:50:26;;;;;;;14.23;10.82;;;29.30;99.90;;;;;;5053934;28;20024;-68
2023/08/20 05:52:53;;;;;;;13.10;10.70;;;29.30;99.90;;;;;;5052562;28;20033;-68
2023/08/20 05:55:19;;;;;;;12.73;10.95;;;29.20;99.90;;;;;;5053648;28;20029;-67
2023/08/20 05:57:44;;;;;;;12.02;10.82;;;29.30;99.90;;;;;;5053822;28;20037;-67
2023/08/20 06:00:11;;;;;;;11.60;10.32;;;29.30;99.90;;;;;;5053854;28;20475;-67
2023/08/20 06:02:37;;;;;;;11.52;10.07;;;29.30;99.90;;;;;;5045276;28;20029;-67
2023/08/20 06:05:04;;;;;;;13.32;11.13;;;29.30;99.90;;;;;;5048206;28;20041;-67
2023/08/20 06:07:31;;;;;;;11.25;10.20;;;29.30;99.90;;;;;;5053705;28;20035;-67
2023/08/20 06:09:56;;;;;;;11.48;10.48;;;29.30;99.90;;;;;;5053804;28;20086;-67
2023/08/20 06:12:23;;;;;;;11.52;10.52;;;29.30;99.90;;;;;;5053315;28;20021;-67
2023/08/20 06:14:49;;;;;;;11.88;10.20;;;29.30;99.90;;;;;;5048875;28;20475;-67
2023/08/20 06:17:14;;;;;;;11.68;10.65;;;29.40;99.90;;;;;;5046669;28;20025;-67
2023/08/20 06:19:40;;;;;;;13.85;11.05;;;29.40;99.90;;;;;;5039317;28;20017;-67
2023/08/20 06:22:06;;;;;;;10.52;9.63;;;29.40;99.90;;;;;;5053404;28;20025;-67
2023/08/20 06:24:32;;;;;;;10.85;9.85;;;29.40;99.90;;;;;;5053158;28;20031;-67
2023/08/20 06:26:57;;;;;;;11.55;10.63;;;29.40;99.90;;;;;;5053098;28;20036;-67
2023/08/20 06:29:23;;;;;;;11.60;10.25;;;29.50;99.90;;;;;;5051825;28;20025;-68
2023/08/20 06:31:50;;;;;;;12.68;11.40;;;29.50;99.90;;;;;;5045769;28;20033;-69
2023/08/20 06:34:15;;;;;;;11.10;10.05;;;29.50;99.90;;;;;;5041674;28;20038;-67
2023/08/20 06:36:41;;;;;;;12.20;9.80;;;29.50;99.90;;;;;;5050333;28;20047;-67
2023/08/20 06:39:07;;;;;;;12.55;11.35;;;29.50;99.90;;;;;;5051812;28;20158;-67
2023/08/20 06:41:33;;;;;;;11.77;10.35;;;29.50;99.90;;;;;;5053074;28;20031;-66
2023/08/20 06:43:59;;;;;;;12.98;11.45;;;29.50;99.90;;;;;;5053208;28;20040;-67
2023/08/20 06:46:24;;;;;;;10.68;9.88;;;29.50;99.90;;;;;;5051557;28;20095;-66
2023/08/20 06:48:50;;;;;;;11.80;10.80;;;29.50;99.90;;;;;;5052747;28;20039;-67
2023/08/20 06:51:21;;;;;;;10.48;9.68;;;29.60;99.90;;;;;;5052757;28;20048;-67
2023/08/20 06:53:46;;;;;;;10.93;10.02;;;29.60;99.90;;;;;;5052894;28;20078;-66
2023/08/20 06:56:12;;;;;;;10.85;9.75;;;29.60;99.90;;;;;;5051871;28;20032;-66
2023/08/20 06:58:40;;;;;;;11.40;10.20;;;29.60;99.90;;;;;;5052206;28;20017;-67
2023/08/20 07:01:08;;;;;;;10.82;9.77;;;29.70;99.90;;;;;;5052090;28;20025;-66
2023/08/20 07:03:36;;;;;;;11.38;10.48;;;29.70;99.90;;;;;;5052393;28;20441;-66
2023/08/20 07:06:02;;;;;;;9.82;8.82;;;29.70;99.90;;;;;;5044868;28;20102;-66
2023/08/20 07:08:27;;;;;;;10.68;9.75;;;29.80;99.90;;;;;;5052400;28;20058;-66
2023/08/20 07:10:53;;;;;;;9.93;9.02;;;29.80;99.90;;;;;;5052837;28;20029;-66
2023/08/20 07:13:18;;;;;;;9.82;8.80;;;29.80;99.90;;;;;;5052506;28;20029;-66
2023/08/20 07:15:44;;;;;;;10.15;9.25;;;29.60;99.90;;;;;;5052542;28;20048;-66
2023/08/20 07:18:13;;;;;;;10.80;9.70;;;29.70;99.90;;;;;;5052668;28;20063;-66
2023/08/20 07:20:39;;;;;;;10.13;9.23;;;29.60;99.90;;;;;;5052469;28;20021;-66
2023/08/20 07:23:04;;;;;;;9.90;8.90;;;29.80;99.90;;;;;;5052638;28;20383;-66
2023/08/20 07:25:30;;;;;;;9.55;8.63;;;29.90;99.90;;;;;;5052308;28;20033;-66
2023/08/20 07:27:59;;;;;;;9.85;8.95;;;29.80;99.90;;;;;;5052438;28;20029;-66
2023/08/20 07:30:25;;;;;;;9.30;8.70;;;29.90;99.90;;;;;;5051493;28;20017;-66
2023/08/20 07:32:51;;;;;;;12.30;9.63;;;29.90;99.90;;;;;;5039927;28;20045;-67
2023/08/20 07:35:17;;;;;;;10.02;9.23;;;29.90;99.90;;;;;;5052398;28;20036;-66
2023/08/20 07:37:42;;;;;;;10.77;9.70;;;29.90;99.90;;;;;;5047310;28;20479;-66
2023/08/20 07:40:09;;;;;;;11.00;9.40;;;30.00;99.90;;;;;;5043533;28;20025;-66
2023/08/20 07:42:36;;;;;;;11.23;10.15;;;30.00;99.90;;;;;;5050983;28;20462;-66
2023/08/20 07:45:02;;;;;;;10.35;9.45;;;30.00;99.90;;;;;;5041871;28;20056;-66
2023/08/20 07:47:29;;;;;;;10.10;9.20;;;30.00;99.90;;;;;;5046704;28;20029;-67
2023/08/20 07:49:55;;;;;;;11.65;10.48;;;30.10;99.90;;;;;;5052351;28;20478;-66
2023/08/20 07:52:21;;;;;;;10.27;9.38;;;30.10;99.90;;;;;;5054286;28;20055;-66
2023/08/20 07:54:46;;;;;;;10.40;9.50;;;30.10;99.90;;;;;;5055764;28;20558;-66
2023/08/20 07:57:12;;;;;;;10.52;9.63;;;30.10;99.90;;;;;;5054706;28;20059;-66
2023/08/20 07:59:38;;;;;;;10.27;9.43;;;30.10;99.90;;;;;;5055804;28;20040;-66
2023/08/20 08:02:04;;;;;;;10.48;9.57;;;30.10;99.90;;;;;;5055996;28;20498;-66
2023/08/20 08:04:30;;;;;;;10.25;9.32;;;30.20;99.90;;;;;;5055662;28;20135;-66
2023/08/20 08:06:55;;;;;;;10.65;9.68;;;30.20;99.90;;;;;;5055565;28;20045;-66
2023/08/20 08:09:29;;;;;;;11.35;10.40;;;30.30;99.90;;;;;;5055999;28;20045;-66
2023/08/20 08:11:54;;;;;;;10.52;9.63;;;30.20;99.90;;;;;;5055684;28;20478;-66
2023/08/20 08:14:20;;;;;;;10.55;9.50;;;30.20;99.90;;;;;;5055684;28;20030;-66
2023/08/20 08:16:46;;;;;;;11.88;10.70;;;30.30;99.90;;;;;;5055482;28;20024;-66
2023/08/20 08:19:12;;;;;;;11.23;9.85;;;30.30;99.90;;;;;;5055512;28;20057;-66
2023/08/20 08:21:38;;;;;;;11.25;9.90;;;30.40;99.90;;;;;;5041413;28;20033;-66
2023/08/20 08:24:04;;;;;;;11.07;10.02;;;30.40;99.90;;;;;;5055507;28;20079;-66
2023/08/20 08:26:31;;;;;;;10.48;9.48;;;30.40;99.90;;;;;;5043216;28;20026;-66
2023/08/20 08:28:57;;;;;;;11.05;10.32;;;30.40;99.90;;;;;;5055332;28;20041;-66
2023/08/20 08:31:23;;;;;;;11.60;10.45;;;30.50;99.90;;;;;;5055401;28;20055;-66
2023/08/20 08:33:49;;;;;;;11.18;10.05;;;30.50;99.90;;;;;;5055287;28;20020;-66
2023/08/20 08:36:16;;;;;;;10.65;9.60;;;30.50;99.90;;;;;;5054972;28;20386;-66
2023/08/20 08:38:42;;;;;;;11.00;10.00;;;30.50;99.90;;;;;;5045756;28;20499;-67
2023/08/20 08:41:12;;;;;;;10.15;9.35;;;30.60;99.90;;;;;;5037098;28;20037;-66
2023/08/20 08:43:39;;;;;;;10.68;9.77;;;30.60;99.90;;;;;;5045640;28;20025;-66
2023/08/20 08:46:11;;;;;;;11.38;10.20;;;30.60;99.90;;;;;;5035071;28;20030;-66
2023/08/20 08:48:39;;;;;;;10.05;9.00;;;30.70;99.90;;;;;;5054960;28;20071;-66
2023/08/20 08:51:05;;;;;;;9.52;8.73;;;30.70;99.90;;;;;;5055003;28;20505;-66
2023/08/20 08:53:32;;;;;;;9.63;8.68;;;30.70;99.90;;;;;;5054650;28;20028;-66
2023/08/20 08:55:59;;;;;;;8.60;7.90;;;30.80;99.90;;;;;;5054671;28;20021;-66
2023/08/20 08:58:25;;;;;;;9.20;8.45;;;30.80;99.90;;;;;;5054736;28;20025;-66
2023/08/20 09:00:50;;;;;;;9.05;8.15;;;30.80;99.90;;;;;;5054941;28;20082;-66
2023/08/20 09:03:16;;;;;;;9.27;8.20;;;30.90;99.90;;;;;;5052157;28;20029;-66
2023/08/20 09:05:49;;;;;;;9.40;8.55;;;30.90;99.90;;;;;;5054501;28;20072;-66
2023/08/20 09:08:28;;;;;;;9.57;8.73;;;30.90;99.90;;;;;;5054708;28;20044;-66
2023/08/20 09:10:55;;;;;;;9.68;8.85;;;30.90;99.90;;;;;;5041874;28;20035;-66
2023/08/20 09:13:35;;;;;;;10.43;9.43;;;30.90;99.90;;;;;;5054660;28;20083;-66
2023/08/20 09:16:07;;;;;;;9.80;9.10;;;30.90;99.90;;;;;;5041615;28;20033;-66
2023/08/20 09:18:41;;;;;;;11.00;10.00;;;31.00;99.90;;;;;;5054657;28;20078;-66
2023/08/20 09:21:08;;;;;;;10.60;9.63;;;31.10;99.90;;;;;;5054578;28;20067;-66
2023/08/20 09:23:34;;;;;;;11.77;10.70;;;31.20;99.90;;;;;;5054552;28;20021;-66
2023/08/20 09:26:02;;;;;;;11.05;10.05;;;31.20;99.90;;;;;;5054353;28;20032;-66
2023/08/20 09:28:39;;;;;;;11.48;10.48;;;31.20;99.90;;;;;;5054485;28;20084;-66
2023/08/20 09:31:05;;;;;;;11.20;9.70;;;31.20;99.90;;;;;;5054255;28;20020;-66
2023/08/20 09:33:31;;;;;;;10.88;9.77;;;31.30;99.90;;;;;;5054086;28;20498;-66
2023/08/20 09:35:56;;;;;;;10.95;10.00;;;31.30;99.90;;;;;;5054200;28;20020;-66
2023/08/20 09:38:23;;;;;;;10.38;8.93;;;31.40;99.90;;;;;;5053893;28;20024;-66
2023/08/20 09:40:52;;;;;;;10.35;9.50;;;31.40;99.90;;;;;;5054219;28;20029;-66
2023/08/20 09:43:18;;;;;;;10.65;9.65;;;31.50;99.90;;;;;;5053915;28;20017;-66
2023/08/20 09:45:46;;;;;;;10.93;10.00;;;31.50;99.90;;;;;;5053995;28;20029;-66
2023/08/20 09:48:19;;;;;;;10.32;9.40;;;31.50;99.90;;;;;;5053905;28;20157;-66
2023/08/20 09:50:46;;;;;;;9.52;8.57;;;31.50;99.90;;;;;;5053780;28;20033;-66
2023/08/20 09:53:27;;;;;;;10.05;9.35;;;31.60;99.90;;;;;;5053591;28;20429;-66
2023/08/20 09:55:55;;;;;;;8.93;8.15;;;31.60;99.90;;;;;;5053557;28;20044;-66
2023/08/20 09:58:25;;;;;;;9.63;8.73;;;31.70;99.90;;;;;;5053417;28;20428;-66
2023/08/20 10:00:51;;;;;;;9.10;8.40;;;31.70;99.90;;;;;;5053315;28;20029;-66
2023/08/20 10:03:19;;;;;;;9.82;9.00;;;31.80;99.90;;;;;;5052877;28;20025;-66
2023/08/20 10:05:48;;;;;;;9.73;8.90;;;31.90;99.90;;;;;;5052754;28;20040;-66
2023/08/20 10:08:14;;;;;;;10.43;9.27;;;31.90;99.90;;;;;;5053100;28;20378;-66
2023/08/20 10:10:40;;;;;;;10.23;9.32;;;32.00;99.90;;;;;;5047114;28;20371;-66
2023/08/20 10:13:06;;;;;;;10.50;9.55;;;32.00;99.90;;;;;;5039087;28;20083;-66
2023/08/20 10:15:36;;;;;;;10.05;9.23;;;32.00;99.90;;;;;;5052898;28;20111;-66
2023/08/20 10:18:02;;;;;;;10.38;9.57;;;32.00;99.90;;;;;;5053252;28;20029;-66
2023/08/20 10:20:30;;;;;;;10.68;9.75;;;32.00;99.90;;;;;;5053168;28;20029;-66
2023/08/20 10:23:02;;;;;;;10.75;9.55;;;32.00;99.90;;;;;;5053151;28;20483;-66
2023/08/20 10:25:29;;;;;;;9.85;8.85;;;32.10;99.90;;;;;;5053091;28;20156;-66
2023/08/20 10:28:10;;;;;;;10.15;9.25;;;32.20;99.90;;;;;;5053182;28;20490;-66
2023/08/20 10:30:36;;;;;;;11.35;10.10;;;32.20;99.90;;;;;;5051817;28;20063;-66
2023/08/20 10:33:03;;;;;;;10.75;9.60;;;32.30;99.90;;;;;;5053098;28;20056;-66
2023/08/20 10:35:47;;;;;;;11.30;10.02;;;32.30;99.90;;;;;;5052966;28;20099;-66
2023/08/20 10:38:17;;;;;;;9.70;8.73;;;32.20;99.90;;;;;;5051696;28;20029;-66
2023/08/20 10:40:53;;;;;;;10.27;9.25;;;32.30;99.90;;;;;;5052888;28;20079;-66
2023/08/20 10:43:33;;;;;;;10.32;9.43;;;32.50;99.90;;;;;;5052015;28;20021;-66
2023/08/20 10:46:04;;;;;;;10.85;9.77;;;32.50;99.90;;;;;;5050495;28;20028;-66
2023/08/20 10:48:33;;;;;;;10.88;9.82;;;32.60;99.90;;;;;;5046072;28;20495;-66
2023/08/20 10:51:09;;;;;;;10.00;9.15;;;32.50;99.90;;;;;;5050713;28;20025;-66
2023/08/20 10:53:35;;;;;;;10.35;9.50;;;32.60;99.90;;;;;;5047056;28;20542;-66
2023/08/20 10:56:53;;;;;;;11.40;10.48;;;32.70;99.90;;;;;;5052940;28;20056;-66
2023/08/20 10:59:25;;;;;;;10.98;10.05;;;32.60;99.90;;;;;;5031583;28;20095;-66
2023/08/20 11:01:53;;;;;;;9.88;9.07;;;32.60;99.90;;;;;;5052929;28;20124;-66
2023/08/20 11:04:20;;;;;;;10.07;9.20;;;32.60;99.90;;;;;;5052715;28;20024;-66
2023/08/20 11:06:49;;;;;;;10.57;9.75;;;32.80;99.90;;;;;;5050957;28;20045;-66
2023/08/20 11:09:15;;;;;;;10.80;9.82;;;32.80;99.90;;;;;;5051173;28;20044;-66
2023/08/20 11:11:42;;;;;;;10.32;9.40;;;33.10;99.90;;;;;;5052704;28;20025;-66
2023/08/20 11:14:13;;;;;;;10.55;9.65;;;33.20;99.90;;;;;;5052599;28;20102;-66
2023/08/20 11:16:39;;;;;;;11.18;10.20;;;33.20;99.90;;;;;;5052607;28;20024;-67
2023/08/20 11:19:08;;;;;;;10.43;9.50;;;33.30;99.90;;;;;;5052462;28;20029;-66
2023/08/20 11:21:43;;;;;;;10.68;9.80;;;33.30;99.90;;;;;;5052564;28;20535;-66
2023/08/20 11:24:09;;;;;;;10.98;10.02;;;33.30;99.90;;;;;;5052541;28;20029;-66
2023/08/20 11:26:38;;;;;;;10.75;9.85;;;33.40;99.90;;;;;;5052938;28;20112;-66
2023/08/20 11:29:08;;;;;;;10.68;9.80;;;33.60;99.90;;;;;;5056687;28;20056;-66
2023/08/20 11:31:36;;;;;;;11.55;10.60;;;33.60;99.90;;;;;;5043143;28;20374;-66
2023/08/20 11:34:03;;;;;;;11.27;10.07;;;33.60;99.90;;;;;;5056391;28;20045;-66
2023/08/20 11:36:28;;;;;;;11.50;10.60;;;33.70;99.90;;;;;;5054786;28;20508;-66
2023/08/20 11:38:55;;;;;;;10.48;9.63;;;33.80;99.90;;;;;;5045387;28;20104;-66
2023/08/20 11:41:24;;;;;;;10.25;9.45;;;33.80;99.90;;;;;;5051790;28;20096;-66
2023/08/20 11:43:52;;;;;;;11.07;10.13;;;34.00;99.90;;;;;;5056189;28;20025;-66
2023/08/20 11:46:20;;;;;;;10.77;9.88;;;34.10;99.90;;;;;;5056137;28;20509;-66
2023/08/20 11:49:05;;;;;;;10.95;10.10;;;34.20;99.90;;;;;;5054764;28;20083;-66
2023/08/20 11:51:37;;;;;;;11.82;10.68;;;34.40;99.90;;;;;;5056046;28;20035;-66
2023/08/20 11:54:06;;;;;;;10.95;10.13;;;34.50;99.90;;;;;;5054674;28;20390;-66
2023/08/20 11:56:34;;;;;;;11.10;10.13;;;34.60;99.90;;;;;;5055775;28;20116;-66
2023/08/20 11:59:00;;;;;;;10.57;9.88;;;34.80;99.90;;;;;;5055943;28;20482;-66
2023/08/20 12:01:30;;;;;;;10.60;9.75;;;;;;;;;;5055790;28;20108;-66
2023/08/20 12:04:00;;;;;;;10.63;9.73;;;;;;;;;;5054445;28;20390;-66
2023/08/20 12:06:30;;;;;;;10.95;10.23;;;;;;;;;;5054250;28;20144;-66
2023/08/20 12:08:56;;;;;;;10.90;10.10;;;46.00;99.90;;;;;;5055598;28;20068;-66
2023/08/20 12:11:26;;;;;;;11.65;10.65;;;;;;;;;;5055675;28;20028;-64
2023/08/20 12:13:52;;;;;;;12.38;11.38;;;46.60;99.90;;;;;;5054263;28;20119;-65
2023/08/20 12:16:18;;;;;;;11.88;10.68;;;46.30;99.90;;;;;;5055588;28;20104;-65
2023/08/20 12:18:46;;;;;;;10.95;10.00;;;45.90;99.90;;;;;;5055482;28;20025;-65
2023/08/20 12:21:11;;;;;;;12.10;11.13;;;45.80;99.90;;;;;;5055607;28;20422;-65
2023/08/20 12:23:37;;;;;;;11.82;11.05;;;45.70;99.90;;;;;;5055398;28;20021;-65
2023/08/20 12:26:03;;;;;;;12.30;11.50;;;45.70;99.90;;;;;;5041302;28;20028;-65
2023/08/20 12:28:29;;;;;;;13.35;12.25;;;46.00;99.90;;;;;;5055506;28;20143;-65
2023/08/20 12:30:55;;;;;;;12.48;11.63;;;47.50;99.90;;;;;;5055151;28;20471;-65
2023/08/20 12:33:23;;;;;;;13.32;12.32;;;48.20;99.90;;;;;;5054000;28;20090;-65